createdAt,value
2019-03-19T00:00:43.358Z,3.50
2019-03-19T00:05:39.105Z,3.50
2019-03-19T00:10:34.954Z,3.50
2019-03-19T00:15:30.711Z,3.50
2019-03-19T00:20:26.312Z,3.40
2019-03-19T00:25:29.926Z,3.20
2019-03-19T00:30:19.300Z,3.10
2019-03-19T00:35:15.343Z,2.90
2019-03-19T00:40:11.508Z,2.90
2019-03-19T00:45:07.357Z,2.80
2019-03-19T00:50:03.128Z,2.80
2019-03-19T00:54:58.852Z,2.90
2019-03-19T00:59:54.571Z,2.90
2019-03-19T01:04:50.266Z,2.80
2019-03-19T01:09:45.936Z,2.80
2019-03-19T01:14:41.586Z,2.80
2019-03-19T01:19:37.255Z,2.80
2019-03-19T01:24:32.990Z,2.80
2019-03-19T01:29:28.714Z,2.80
2019-03-19T01:34:24.425Z,2.70
2019-03-19T01:39:20.112Z,2.60
2019-03-19T01:44:15.868Z,2.70
2019-03-19T01:49:11.488Z,2.80
2019-03-19T01:54:07.237Z,2.80
2019-03-19T01:59:04.018Z,2.80
2019-03-19T02:03:59.688Z,2.80
2019-03-19T02:08:55.403Z,2.80
2019-03-19T02:13:52.123Z,2.80
2019-03-19T02:18:47.926Z,2.70
2019-03-19T02:23:43.608Z,2.70
2019-03-19T02:28:39.313Z,2.70
2019-03-19T02:33:35.060Z,2.70
2019-03-19T02:38:30.852Z,2.70
2019-03-19T02:43:26.520Z,2.70
2019-03-19T02:48:22.269Z,2.70
2019-03-19T02:53:18.025Z,2.80
2019-03-19T02:58:13.665Z,2.70
2019-03-19T03:03:09.393Z,2.60
2019-03-19T03:08:05.134Z,2.60
2019-03-19T03:13:00.823Z,2.50
2019-03-19T03:17:56.512Z,2.50
2019-03-19T03:22:52.170Z,2.50
2019-03-19T03:27:47.896Z,2.40
2019-03-19T03:32:44.077Z,2.40
2019-03-19T03:37:39.821Z,2.40
2019-03-19T03:42:35.939Z,2.40
2019-03-19T03:47:31.575Z,2.40
2019-03-19T03:52:27.279Z,2.40
2019-03-19T03:57:23.023Z,2.40
2019-03-19T04:02:18.721Z,2.40
2019-03-19T04:07:14.553Z,2.30
2019-03-19T04:12:11.462Z,2.30
2019-03-19T04:17:09.834Z,2.30
2019-03-19T04:22:05.844Z,2.40
2019-03-19T04:27:14.929Z,2.30
2019-03-19T04:31:58.872Z,2.20
2019-03-19T04:36:54.611Z,2.10
2019-03-19T04:41:50.461Z,2.10
2019-03-19T04:46:46.172Z,2.10
2019-03-19T04:51:41.932Z,2.10
2019-03-19T04:56:37.579Z,2.10
2019-03-19T05:01:33.338Z,2.10
2019-03-19T05:06:29.079Z,2.00
2019-03-19T05:11:24.794Z,2.00
2019-03-19T05:16:20.538Z,2.00
2019-03-19T05:21:16.309Z,2.10
2019-03-19T05:26:13.663Z,2.00
2019-03-19T05:31:10.332Z,2.00
2019-03-19T05:36:07.201Z,2.00
2019-03-19T05:41:02.961Z,2.00
2019-03-19T05:45:59.302Z,2.00
2019-03-19T05:50:55.002Z,2.10
2019-03-19T05:55:50.666Z,2.10
2019-03-19T06:00:46.360Z,2.20
2019-03-19T06:05:42.501Z,2.40
2019-03-19T06:10:38.111Z,2.40
2019-03-19T06:15:33.709Z,2.50
2019-03-19T06:20:31.859Z,2.60
2019-03-19T06:25:27.576Z,2.60
2019-03-19T06:30:25.146Z,2.60
2019-03-19T06:35:21.306Z,2.60
2019-03-19T06:40:18.005Z,2.70
2019-03-19T06:45:14.866Z,2.60
2019-03-19T06:50:11.810Z,2.60
2019-03-19T06:55:08.804Z,2.80
2019-03-19T07:00:05.731Z,3.00
2019-03-19T07:05:01.487Z,3.20
2019-03-19T07:09:57.238Z,3.30
2019-03-19T07:14:53.043Z,3.50
2019-03-19T07:19:48.744Z,3.70
2019-03-19T07:24:44.478Z,3.80
2019-03-19T07:29:40.332Z,3.90
2019-03-19T07:34:36.160Z,4.10
2019-03-19T07:39:32.012Z,4.20
2019-03-19T07:44:28.112Z,4.40
2019-03-19T07:49:23.882Z,4.50
2019-03-19T07:54:19.641Z,4.60
2019-03-19T07:59:15.375Z,4.80
2019-03-19T08:04:11.180Z,5.00
2019-03-19T08:09:09.184Z,5.20
2019-03-19T08:14:04.944Z,5.50
2019-03-19T08:19:00.672Z,5.70
2019-03-19T08:23:57.965Z,5.80
2019-03-19T08:28:55.586Z,5.80
2019-03-19T08:33:51.222Z,5.90
2019-03-19T08:38:48.020Z,6.10
2019-03-19T08:43:43.766Z,6.30
2019-03-19T08:48:42.731Z,6.60
2019-03-19T08:53:38.516Z,6.90
2019-03-19T08:58:34.316Z,7.20
2019-03-19T09:03:30.112Z,7.40
2019-03-19T09:08:25.868Z,7.50
2019-03-19T09:13:21.696Z,7.90
2019-03-19T09:18:17.446Z,8.10
2019-03-19T09:23:13.260Z,8.30
2019-03-19T09:28:09.108Z,8.60
2019-03-19T09:33:06.190Z,8.80
2019-03-19T09:38:03.516Z,9.00
2019-03-19T09:42:59.253Z,9.10
2019-03-19T09:47:56.486Z,9.20
2019-03-19T09:52:52.300Z,9.40
2019-03-19T09:57:48.211Z,9.60
2019-03-19T10:02:43.980Z,9.80
2019-03-19T10:07:39.793Z,9.90
2019-03-19T10:12:35.631Z,10.30
2019-03-19T10:17:31.278Z,10.60
2019-03-19T10:22:26.999Z,10.80
2019-03-19T10:27:22.801Z,11.20
2019-03-19T10:32:18.467Z,11.40
2019-03-19T10:37:14.197Z,11.50
2019-03-19T10:42:10.415Z,11.60
2019-03-19T10:47:06.082Z,11.90
2019-03-19T10:52:01.904Z,11.70
2019-03-19T10:56:57.690Z,11.60
2019-03-19T11:01:51.704Z,11.80
2019-03-19T11:06:50.454Z,12.10
2019-03-19T11:11:47.741Z,12.00
2019-03-19T11:16:43.559Z,11.80
2019-03-19T11:21:40.214Z,11.80
2019-03-19T11:26:35.995Z,11.50
2019-03-19T11:31:31.997Z,11.20
2019-03-19T11:36:28.207Z,11.10
2019-03-19T11:41:23.993Z,10.90
2019-03-19T11:46:20.907Z,11.00
2019-03-19T11:51:16.631Z,11.00
2019-03-19T11:56:12.415Z,11.10
2019-03-19T12:01:08.414Z,11.20
2019-03-19T12:06:04.186Z,11.30
2019-03-19T12:11:01.585Z,11.20
2019-03-19T12:15:57.407Z,11.10
2019-03-19T12:20:53.235Z,10.90
2019-03-19T12:25:51.115Z,10.70
2019-03-19T12:30:46.895Z,10.40
2019-03-19T12:35:42.696Z,10.20
2019-03-19T12:40:38.456Z,10.20
2019-03-19T12:45:34.127Z,10.20
2019-03-19T12:50:33.655Z,10.60
2019-03-19T12:55:32.318Z,11.40
2019-03-19T13:00:34.085Z,12.20
2019-03-19T13:05:25.797Z,12.00
2019-03-19T13:10:22.008Z,11.60
2019-03-19T13:15:19.440Z,10.70
2019-03-19T13:20:15.725Z,10.20
2019-03-19T13:25:14.469Z,9.90
2019-03-19T13:30:12.957Z,9.80
2019-03-19T13:35:09.201Z,9.80
2019-03-19T13:40:05.592Z,9.30
2019-03-19T13:45:04.089Z,8.90
2019-03-19T13:50:00.089Z,8.50
2019-03-19T13:54:55.728Z,8.30
2019-03-19T13:59:51.541Z,8.10
2019-03-19T14:04:49.803Z,8.30
2019-03-19T14:09:45.618Z,8.90
2019-03-19T14:14:41.377Z,9.30
2019-03-19T14:19:37.092Z,9.30
2019-03-19T14:24:33.352Z,9.10
2019-03-19T14:29:29.104Z,8.90
2019-03-19T14:34:24.845Z,8.70
2019-03-19T14:39:20.620Z,8.70
2019-03-19T14:44:16.645Z,8.70
2019-03-19T14:49:14.664Z,8.90
2019-03-19T14:54:10.701Z,9.10
2019-03-19T14:59:06.546Z,9.50
2019-03-19T15:04:02.287Z,9.20
2019-03-19T15:08:59.042Z,9.00
2019-03-19T15:13:56.139Z,8.80
2019-03-19T15:18:52.889Z,8.70
2019-03-19T15:23:48.777Z,8.70
2019-03-19T15:28:44.575Z,8.30
2019-03-19T15:33:40.388Z,8.00
2019-03-19T15:38:37.484Z,8.10
2019-03-19T15:43:33.390Z,8.00
2019-03-19T15:48:29.176Z,7.90
2019-03-19T15:53:24.831Z,8.10
2019-03-19T15:58:20.528Z,8.20
2019-03-19T16:03:18.811Z,8.30
2019-03-19T16:08:14.607Z,8.60
2019-03-19T16:13:13.475Z,9.80
2019-03-19T16:18:09.214Z,8.90
2019-03-19T16:23:08.095Z,8.40
2019-03-19T16:28:04.602Z,8.20
2019-03-19T16:33:00.334Z,8.00
2019-03-19T16:37:56.303Z,7.70
2019-03-19T16:42:52.635Z,7.60
2019-03-19T16:47:48.362Z,7.50
2019-03-19T16:52:45.123Z,7.50
2019-03-19T16:57:40.975Z,7.30
2019-03-19T17:02:36.707Z,7.00
2019-03-19T17:07:32.598Z,6.80
2019-03-19T17:12:28.460Z,6.70
2019-03-19T17:17:24.918Z,6.70
2019-03-19T17:22:20.635Z,6.60
2019-03-19T17:27:16.372Z,6.60
2019-03-19T17:32:13.231Z,6.60
2019-03-19T17:37:09.237Z,6.50
2019-03-19T17:42:06.014Z,6.40
2019-03-19T17:47:01.712Z,6.40
2019-03-19T17:52:00.583Z,6.40
2019-03-19T17:56:56.344Z,6.30
2019-03-19T18:01:52.080Z,6.30
2019-03-19T18:06:48.993Z,6.20
2019-03-19T18:11:44.752Z,6.10
2019-03-19T18:16:40.556Z,6.00
2019-03-19T18:21:36.332Z,5.90
2019-03-19T18:26:32.580Z,5.80
2019-03-19T18:31:28.386Z,5.70
2019-03-19T18:36:24.145Z,5.70
2019-03-19T18:41:19.902Z,5.70
2019-03-19T18:46:15.611Z,5.50
2019-03-19T18:51:14.584Z,5.40
2019-03-19T18:56:10.362Z,5.40
2019-03-19T19:01:06.155Z,5.40
2019-03-19T19:06:03.500Z,5.40
2019-03-19T19:10:59.260Z,5.30
2019-03-19T19:15:57.240Z,5.30
2019-03-19T19:20:53.370Z,5.40
2019-03-19T19:25:51.993Z,5.30
2019-03-19T19:30:47.814Z,5.30
2019-03-19T19:35:43.599Z,5.30
2019-03-19T19:40:40.908Z,5.30
2019-03-19T19:45:37.117Z,5.20
2019-03-19T19:50:32.882Z,5.20
2019-03-19T19:55:28.866Z,5.20
2019-03-19T20:00:24.832Z,5.10
2019-03-19T20:05:20.625Z,5.10
2019-03-19T20:10:17.838Z,4.90
2019-03-19T20:15:13.799Z,4.70
2019-03-19T20:20:27.711Z,4.60
2019-03-19T20:26:17.078Z,4.50
2019-03-19T20:31:21.921Z,4.40
2019-03-19T20:36:25.208Z,4.30
2019-03-19T20:41:23.784Z,4.10
2019-03-19T20:46:20.003Z,3.90
2019-03-19T20:51:17.831Z,3.80
2019-03-19T20:56:13.607Z,3.60
2019-03-19T21:01:09.285Z,3.50
2019-03-19T21:06:04.990Z,3.60
2019-03-19T21:11:00.657Z,3.60
2019-03-19T21:15:56.381Z,3.50
2019-03-19T21:20:52.227Z,3.50
2019-03-19T21:25:47.806Z,3.50
2019-03-19T21:30:44.995Z,3.50
2019-03-19T21:35:40.914Z,3.50
2019-03-19T21:40:37.575Z,3.50
2019-03-19T21:45:34.800Z,3.60
2019-03-19T21:50:31.468Z,3.50
2019-03-19T21:55:29.653Z,3.50
2019-03-19T22:00:28.089Z,3.40
2019-03-19T22:05:23.704Z,3.40
2019-03-19T22:10:19.578Z,3.50
2019-03-19T22:15:16.647Z,3.50
2019-03-19T22:20:12.378Z,3.50
2019-03-19T22:25:11.163Z,3.50
2019-03-19T22:30:10.830Z,3.40
2019-03-19T22:35:07.070Z,3.40
2019-03-19T22:40:02.712Z,3.30
2019-03-19T22:44:58.456Z,3.40
2019-03-19T22:49:54.135Z,3.50
2019-03-19T22:54:49.716Z,3.50
2019-03-19T22:59:45.386Z,3.60
2019-03-19T23:04:43.342Z,3.50
2019-03-19T23:09:38.895Z,3.50
2019-03-19T23:14:35.672Z,3.50
2019-03-19T23:19:31.333Z,3.50
2019-03-19T23:24:26.982Z,3.40
2019-03-19T23:29:22.942Z,3.40
2019-03-19T23:34:18.580Z,3.50
2019-03-19T23:39:14.218Z,3.50
2019-03-19T23:44:09.904Z,3.50
2019-03-19T23:49:05.552Z,3.40
2019-03-19T23:54:02.333Z,3.40
2019-03-19T23:58:57.987Z,3.50
